sensor_id;sensor_type;location;lat;lon;timestamp;P1;durP1;ratioP1;P2;durP2;ratioP2
3757;SDS011;1894;51.038;13.692;2022-07-03T00:01:35;7.97;;;5.00;;
3757;SDS011;1894;51.038;13.692;2022-07-03T00:04:03;6.33;;;5.57;;
3757;SDS011;1894;51.038;13.692;2022-07-03T00:06:31;6.20;;;5.60;;
3757;SDS011;1894;51.038;13.692;2022-07-03T00:08:59;6.90;;;6.20;;
3757;SDS011;1894;51.038;13.692;2022-07-03T00:11:28;7.67;;;6.43;;
3757;SDS011;1894;51.038;13.692;2022-07-03T00:13:56;7.60;;;6.20;;
3757;SDS011;1894;51.038;13.692;2022-07-03T00:16:23;6.67;;;6.07;;
3757;SDS011;1894;51.038;13.692;2022-07-03T00:18:50;7.57;;;5.70;;
3757;SDS011;1894;51.038;13.692;2022-07-03T00:21:24;7.00;;;6.30;;
3757;SDS011;1894;51.038;13.692;2022-07-03T00:26:29;6.80;;;5.13;;
3757;SDS011;1894;51.038;13.692;2022-07-03T00:29:00;10.37;;;5.93;;
3757;SDS011;1894;51.038;13.692;2022-07-03T00:31:29;7.30;;;6.00;;
3757;SDS011;1894;51.038;13.692;2022-07-03T00:33:57;8.93;;;5.67;;
3757;SDS011;1894;51.038;13.692;2022-07-03T00:36:26;5.67;;;5.10;;
3757;SDS011;1894;51.038;13.692;2022-07-03T00:39:01;5.70;;;5.20;;
3757;SDS011;1894;51.038;13.692;2022-07-03T00:41:30;7.30;;;5.33;;
3757;SDS011;1894;51.038;13.692;2022-07-03T00:43:58;6.13;;;5.50;;
3757;SDS011;1894;51.038;13.692;2022-07-03T00:46:26;6.27;;;5.70;;
3757;SDS011;1894;51.038;13.692;2022-07-03T00:48:55;5.90;;;5.00;;
3757;SDS011;1894;51.038;13.692;2022-07-03T00:51:24;4.37;;;3.97;;
3757;SDS011;1894;51.038;13.692;2022-07-03T00:53:57;6.40;;;4.57;;
3757;SDS011;1894;51.038;13.692;2022-07-03T00:56:27;5.07;;;4.63;;
3757;SDS011;1894;51.038;13.692;2022-07-03T00:58:57;5.60;;;4.23;;
3757;SDS011;1894;51.038;13.692;2022-07-03T01:01:30;5.60;;;5.10;;
3757;SDS011;1894;51.038;13.692;2022-07-03T01:04:03;6.23;;;4.60;;
3757;SDS011;1894;51.038;13.692;2022-07-03T01:06:33;4.27;;;3.97;;
3757;SDS011;1894;51.038;13.692;2022-07-03T01:09:05;4.83;;;4.43;;
3757;SDS011;1894;51.038;13.692;2022-07-03T01:11:50;4.30;;;4.00;;
3757;SDS011;1894;51.038;13.692;2022-07-03T01:14:32;3.73;;;3.37;;
3757;SDS011;1894;51.038;13.692;2022-07-03T01:17:31;4.57;;;4.27;;
3757;SDS011;1894;51.038;13.692;2022-07-03T01:20:05;4.87;;;4.47;;
3757;SDS011;1894;51.038;13.692;2022-07-03T01:22:35;4.10;;;3.43;;
3757;SDS011;1894;51.038;13.692;2022-07-03T01:25:24;5.37;;;3.80;;
3757;SDS011;1894;51.038;13.692;2022-07-03T01:27:57;5.80;;;4.07;;
3757;SDS011;1894;51.038;13.692;2022-07-03T01:30:28;5.93;;;4.30;;
3757;SDS011;1894;51.038;13.692;2022-07-03T01:35:41;5.50;;;3.53;;
3757;SDS011;1894;51.038;13.692;2022-07-03T01:38:34;3.57;;;3.27;;
3757;SDS011;1894;51.038;13.692;2022-07-03T01:41:07;4.50;;;3.90;;
3757;SDS011;1894;51.038;13.692;2022-07-03T01:43:42;3.93;;;3.63;;
3757;SDS011;1894;51.038;13.692;2022-07-03T01:46:16;4.20;;;3.80;;
3757;SDS011;1894;51.038;13.692;2022-07-03T01:48:45;6.40;;;3.50;;
3757;SDS011;1894;51.038;13.692;2022-07-03T01:51:14;4.10;;;3.80;;
3757;SDS011;1894;51.038;13.692;2022-07-03T01:53:49;4.13;;;3.80;;
3757;SDS011;1894;51.038;13.692;2022-07-03T01:56:18;3.60;;;3.30;;
3757;SDS011;1894;51.038;13.692;2022-07-03T01:58:46;3.83;;;3.27;;
3757;SDS011;1894;51.038;13.692;2022-07-03T02:07:02;3.83;;;3.50;;
3757;SDS011;1894;51.038;13.692;2022-07-03T02:10:22;4.40;;;4.00;;
3757;SDS011;1894;51.038;13.692;2022-07-03T02:12:26;4.17;;;3.87;;
3757;SDS011;1894;51.038;13.692;2022-07-03T02:15:05;4.70;;;3.87;;
3757;SDS011;1894;51.038;13.692;2022-07-03T02:17:45;5.00;;;3.70;;
3757;SDS011;1894;51.038;13.692;2022-07-03T02:20:16;3.93;;;3.63;;
3757;SDS011;1894;51.038;13.692;2022-07-03T02:22:50;5.03;;;4.03;;
3757;SDS011;1894;51.038;13.692;2022-07-03T02:25:24;4.30;;;3.93;;
3757;SDS011;1894;51.038;13.692;2022-07-03T02:30:52;6.00;;;3.93;;
3757;SDS011;1894;51.038;13.692;2022-07-03T02:33:26;5.63;;;3.90;;
3757;SDS011;1894;51.038;13.692;2022-07-03T02:35:57;4.90;;;3.90;;
3757;SDS011;1894;51.038;13.692;2022-07-03T02:38:24;4.50;;;4.10;;
3757;SDS011;1894;51.038;13.692;2022-07-03T02:40:55;5.73;;;4.70;;
3757;SDS011;1894;51.038;13.692;2022-07-03T02:46:18;9.00;;;4.80;;
3757;SDS011;1894;51.038;13.692;2022-07-03T02:51:54;4.57;;;4.13;;
3757;SDS011;1894;51.038;13.692;2022-07-03T02:54:32;6.70;;;4.70;;
3757;SDS011;1894;51.038;13.692;2022-07-03T02:57:15;8.90;;;4.33;;
3757;SDS011;1894;51.038;13.692;2022-07-03T02:59:45;10.97;;;4.53;;
3757;SDS011;1894;51.038;13.692;2022-07-03T03:08:01;5.10;;;4.70;;
3757;SDS011;1894;51.038;13.692;2022-07-03T03:10:35;4.40;;;4.00;;
3757;SDS011;1894;51.038;13.692;2022-07-03T03:13:13;4.60;;;4.20;;
3757;SDS011;1894;51.038;13.692;2022-07-03T03:15:54;6.13;;;3.90;;
3757;SDS011;1894;51.038;13.692;2022-07-03T03:18:39;6.47;;;5.20;;
3757;SDS011;1894;51.038;13.692;2022-07-03T03:21:10;5.30;;;4.80;;
3757;SDS011;1894;51.038;13.692;2022-07-03T03:26:21;4.60;;;4.20;;
3757;SDS011;1894;51.038;13.692;2022-07-03T03:28:49;4.73;;;4.33;;
3757;SDS011;1894;51.038;13.692;2022-07-03T03:31:18;8.07;;;4.60;;
3757;SDS011;1894;51.038;13.692;2022-07-03T03:33:47;4.37;;;3.97;;
3757;SDS011;1894;51.038;13.692;2022-07-03T03:36:16;4.07;;;3.67;;
3757;SDS011;1894;51.038;13.692;2022-07-03T03:38:45;4.67;;;4.27;;
3757;SDS011;1894;51.038;13.692;2022-07-03T03:41:13;4.40;;;3.53;;
3757;SDS011;1894;51.038;13.692;2022-07-03T03:43:43;7.37;;;5.27;;
3757;SDS011;1894;51.038;13.692;2022-07-03T03:46:10;4.47;;;4.07;;
3757;SDS011;1894;51.038;13.692;2022-07-03T03:48:38;4.77;;;3.73;;
3757;SDS011;1894;51.038;13.692;2022-07-03T03:51:05;4.60;;;4.20;;
3757;SDS011;1894;51.038;13.692;2022-07-03T03:53:34;9.43;;;4.80;;
3757;SDS011;1894;51.038;13.692;2022-07-03T03:56:06;4.67;;;4.13;;
3757;SDS011;1894;51.038;13.692;2022-07-03T03:58:37;4.33;;;3.93;;
3757;SDS011;1894;51.038;13.692;2022-07-03T04:01:06;5.57;;;4.00;;
3757;SDS011;1894;51.038;13.692;2022-07-03T04:03:34;6.47;;;4.30;;
3757;SDS011;1894;51.038;13.692;2022-07-03T04:06:02;4.77;;;4.37;;
3757;SDS011;1894;51.038;13.692;2022-07-03T04:08:30;7.73;;;4.10;;
3757;SDS011;1894;51.038;13.692;2022-07-03T04:10:57;5.50;;;4.03;;
3757;SDS011;1894;51.038;13.692;2022-07-03T04:13:25;4.47;;;4.07;;
3757;SDS011;1894;51.038;13.692;2022-07-03T04:15:52;8.23;;;4.70;;
3757;SDS011;1894;51.038;13.692;2022-07-03T04:18:21;5.63;;;4.13;;
3757;SDS011;1894;51.038;13.692;2022-07-03T04:20:49;5.10;;;4.10;;
3757;SDS011;1894;51.038;13.692;2022-07-03T04:23:16;4.90;;;4.00;;
3757;SDS011;1894;51.038;13.692;2022-07-03T04:25:43;6.97;;;4.37;;
3757;SDS011;1894;51.038;13.692;2022-07-03T04:28:10;4.80;;;4.10;;
3757;SDS011;1894;51.038;13.692;2022-07-03T04:30:46;4.73;;;3.80;;
3757;SDS011;1894;51.038;13.692;2022-07-03T04:33:14;4.33;;;3.97;;
3757;SDS011;1894;51.038;13.692;2022-07-03T04:35:41;5.23;;;4.37;;
3757;SDS011;1894;51.038;13.692;2022-07-03T04:38:08;5.37;;;4.87;;
3757;SDS011;1894;51.038;13.692;2022-07-03T04:40:35;5.37;;;4.83;;
3757;SDS011;1894;51.038;13.692;2022-07-03T04:43:02;8.27;;;4.03;;
3757;SDS011;1894;51.038;13.692;2022-07-03T04:45:30;6.80;;;5.00;;
3757;SDS011;1894;51.038;13.692;2022-07-03T04:47:57;5.80;;;3.93;;
3757;SDS011;1894;51.038;13.692;2022-07-03T04:50:24;6.80;;;4.17;;
3757;SDS011;1894;51.038;13.692;2022-07-03T04:52:51;5.60;;;4.57;;
3757;SDS011;1894;51.038;13.692;2022-07-03T04:55:18;4.27;;;3.87;;
3757;SDS011;1894;51.038;13.692;2022-07-03T04:57:45;3.80;;;3.50;;
3757;SDS011;1894;51.038;13.692;2022-07-03T05:00:12;4.40;;;3.57;;
3757;SDS011;1894;51.038;13.692;2022-07-03T05:02:39;4.50;;;4.20;;
3757;SDS011;1894;51.038;13.692;2022-07-03T05:05:06;5.03;;;4.63;;
3757;SDS011;1894;51.038;13.692;2022-07-03T05:07:34;3.80;;;3.50;;
3757;SDS011;1894;51.038;13.692;2022-07-03T05:10:01;7.00;;;4.17;;
3757;SDS011;1894;51.038;13.692;2022-07-03T05:12:28;5.80;;;4.03;;
3757;SDS011;1894;51.038;13.692;2022-07-03T05:14:55;5.03;;;3.93;;
3757;SDS011;1894;51.038;13.692;2022-07-03T05:17:22;5.00;;;3.67;;
3757;SDS011;1894;51.038;13.692;2022-07-03T05:19:49;4.33;;;3.73;;
3757;SDS011;1894;51.038;13.692;2022-07-03T05:22:36;5.53;;;3.80;;
3757;SDS011;1894;51.038;13.692;2022-07-03T05:25:03;7.50;;;5.03;;
3757;SDS011;1894;51.038;13.692;2022-07-03T05:27:30;4.63;;;3.80;;
3757;SDS011;1894;51.038;13.692;2022-07-03T05:29:57;5.30;;;3.50;;
3757;SDS011;1894;51.038;13.692;2022-07-03T05:32:24;5.20;;;3.20;;
3757;SDS011;1894;51.038;13.692;2022-07-03T05:34:51;6.63;;;3.57;;
3757;SDS011;1894;51.038;13.692;2022-07-03T05:37:18;3.80;;;3.23;;
3757;SDS011;1894;51.038;13.692;2022-07-03T05:39:45;14.13;;;4.23;;
3757;SDS011;1894;51.038;13.692;2022-07-03T05:42:13;4.53;;;3.63;;
3757;SDS011;1894;51.038;13.692;2022-07-03T05:44:40;5.17;;;3.23;;
3757;SDS011;1894;51.038;13.692;2022-07-03T05:47:07;5.03;;;3.53;;
3757;SDS011;1894;51.038;13.692;2022-07-03T05:49:34;3.90;;;3.60;;
3757;SDS011;1894;51.038;13.692;2022-07-03T05:52:01;2.87;;;2.67;;
3757;SDS011;1894;51.038;13.692;2022-07-03T05:54:28;3.70;;;3.40;;
3757;SDS011;1894;51.038;13.692;2022-07-03T05:56:55;3.67;;;3.30;;
3757;SDS011;1894;51.038;13.692;2022-07-03T05:59:22;5.83;;;3.53;;
3757;SDS011;1894;51.038;13.692;2022-07-03T06:01:49;8.57;;;4.10;;
3757;SDS011;1894;51.038;13.692;2022-07-03T06:04:16;2.83;;;2.63;;
3757;SDS011;1894;51.038;13.692;2022-07-03T06:06:43;3.10;;;2.90;;
3757;SDS011;1894;51.038;13.692;2022-07-03T06:09:10;4.00;;;3.30;;
3757;SDS011;1894;51.038;13.692;2022-07-03T06:11:42;4.60;;;2.93;;
3757;SDS011;1894;51.038;13.692;2022-07-03T06:14:09;4.97;;;3.67;;
3757;SDS011;1894;51.038;13.692;2022-07-03T06:16:36;3.57;;;3.27;;
3757;SDS011;1894;51.038;13.692;2022-07-03T06:19:03;3.67;;;3.20;;
3757;SDS011;1894;51.038;13.692;2022-07-03T06:21:30;3.97;;;3.13;;
3757;SDS011;1894;51.038;13.692;2022-07-03T06:23:58;4.97;;;4.10;;
3757;SDS011;1894;51.038;13.692;2022-07-03T06:26:26;3.87;;;2.87;;
3757;SDS011;1894;51.038;13.692;2022-07-03T06:28:55;3.50;;;2.77;;
3757;SDS011;1894;51.038;13.692;2022-07-03T06:31:22;3.50;;;3.20;;
3757;SDS011;1894;51.038;13.692;2022-07-03T06:33:49;3.33;;;3.13;;
3757;SDS011;1894;51.038;13.692;2022-07-03T06:36:16;4.00;;;3.60;;
3757;SDS011;1894;51.038;13.692;2022-07-03T06:38:43;3.73;;;3.43;;
3757;SDS011;1894;51.038;13.692;2022-07-03T06:41:10;3.60;;;3.23;;
3757;SDS011;1894;51.038;13.692;2022-07-03T06:43:37;3.43;;;3.13;;
3757;SDS011;1894;51.038;13.692;2022-07-03T06:46:05;2.70;;;2.40;;
3757;SDS011;1894;51.038;13.692;2022-07-03T06:48:32;3.53;;;3.23;;
3757;SDS011;1894;51.038;13.692;2022-07-03T06:50:59;3.67;;;3.13;;
3757;SDS011;1894;51.038;13.692;2022-07-03T06:53:26;2.80;;;2.60;;
3757;SDS011;1894;51.038;13.692;2022-07-03T06:55:53;2.90;;;2.70;;
3757;SDS011;1894;51.038;13.692;2022-07-03T06:58:20;5.43;;;3.07;;
3757;SDS011;1894;51.038;13.692;2022-07-03T07:00:47;7.00;;;5.33;;
3757;SDS011;1894;51.038;13.692;2022-07-03T07:03:14;5.07;;;3.60;;
3757;SDS011;1894;51.038;13.692;2022-07-03T07:05:41;4.17;;;3.53;;
3757;SDS011;1894;51.038;13.692;2022-07-03T07:08:08;5.10;;;2.73;;
3757;SDS011;1894;51.038;13.692;2022-07-03T07:10:35;3.00;;;2.80;;
3757;SDS011;1894;51.038;13.692;2022-07-03T07:13:02;4.30;;;3.60;;
3757;SDS011;1894;51.038;13.692;2022-07-03T07:15:29;6.10;;;4.67;;
3757;SDS011;1894;51.038;13.692;2022-07-03T07:17:56;4.17;;;3.57;;
3757;SDS011;1894;51.038;13.692;2022-07-03T07:20:23;4.07;;;3.00;;
3757;SDS011;1894;51.038;13.692;2022-07-03T07:22:50;2.93;;;2.67;;
3757;SDS011;1894;51.038;13.692;2022-07-03T07:25:17;6.13;;;3.13;;
3757;SDS011;1894;51.038;13.692;2022-07-03T07:27:44;2.90;;;2.70;;
3757;SDS011;1894;51.038;13.692;2022-07-03T07:30:11;3.70;;;3.40;;
3757;SDS011;1894;51.038;13.692;2022-07-03T07:32:38;5.43;;;2.47;;
3757;SDS011;1894;51.038;13.692;2022-07-03T07:35:05;2.77;;;2.57;;
3757;SDS011;1894;51.038;13.692;2022-07-03T07:37:33;3.10;;;2.80;;
3757;SDS011;1894;51.038;13.692;2022-07-03T07:40:00;3.43;;;2.60;;
3757;SDS011;1894;51.038;13.692;2022-07-03T07:42:27;4.17;;;2.40;;
3757;SDS011;1894;51.038;13.692;2022-07-03T07:44:54;3.70;;;3.10;;
3757;SDS011;1894;51.038;13.692;2022-07-03T07:47:21;2.63;;;2.43;;
3757;SDS011;1894;51.038;13.692;2022-07-03T07:49:48;2.60;;;2.50;;
3757;SDS011;1894;51.038;13.692;2022-07-03T07:52:15;3.40;;;3.10;;
3757;SDS011;1894;51.038;13.692;2022-07-03T07:54:42;4.40;;;2.27;;
3757;SDS011;1894;51.038;13.692;2022-07-03T07:57:09;9.70;;;7.93;;
3757;SDS011;1894;51.038;13.692;2022-07-03T07:59:36;3.27;;;2.97;;
3757;SDS011;1894;51.038;13.692;2022-07-03T08:02:10;4.23;;;2.50;;
3757;SDS011;1894;51.038;13.692;2022-07-03T08:04:56;5.10;;;2.67;;
3757;SDS011;1894;51.038;13.692;2022-07-03T08:07:42;3.17;;;2.97;;
3757;SDS011;1894;51.038;13.692;2022-07-03T08:10:09;2.63;;;2.07;;
3757;SDS011;1894;51.038;13.692;2022-07-03T08:12:36;2.23;;;2.13;;
3757;SDS011;1894;51.038;13.692;2022-07-03T08:15:03;2.00;;;1.90;;
3757;SDS011;1894;51.038;13.692;2022-07-03T08:17:30;3.67;;;2.37;;
3757;SDS011;1894;51.038;13.692;2022-07-03T08:19:57;2.27;;;2.07;;
3757;SDS011;1894;51.038;13.692;2022-07-03T08:22:24;2.30;;;2.20;;
3757;SDS011;1894;51.038;13.692;2022-07-03T08:24:51;2.10;;;2.00;;
3757;SDS011;1894;51.038;13.692;2022-07-03T08:27:18;1.73;;;1.63;;
3757;SDS011;1894;51.038;13.692;2022-07-03T08:29:45;5.73;;;1.40;;
3757;SDS011;1894;51.038;13.692;2022-07-03T08:32:13;1.70;;;1.60;;
3757;SDS011;1894;51.038;13.692;2022-07-03T08:34:40;3.60;;;3.30;;
3757;SDS011;1894;51.038;13.692;2022-07-03T08:37:07;3.10;;;2.90;;
3757;SDS011;1894;51.038;13.692;2022-07-03T08:39:35;2.10;;;1.67;;
3757;SDS011;1894;51.038;13.692;2022-07-03T08:42:02;3.27;;;1.40;;
3757;SDS011;1894;51.038;13.692;2022-07-03T08:44:31;1.57;;;1.47;;
3757;SDS011;1894;51.038;13.692;2022-07-03T08:47:02;1.53;;;1.43;;
3757;SDS011;1894;51.038;13.692;2022-07-03T08:49:30;1.83;;;1.73;;
3757;SDS011;1894;51.038;13.692;2022-07-03T08:51:59;3.57;;;1.30;;
3757;SDS011;1894;51.038;13.692;2022-07-03T08:54:27;2.87;;;1.60;;
3757;SDS011;1894;51.038;13.692;2022-07-03T08:56:54;1.40;;;1.30;;
3757;SDS011;1894;51.038;13.692;2022-07-03T08:59:21;1.40;;;1.30;;
3757;SDS011;1894;51.038;13.692;2022-07-03T09:01:52;2.13;;;1.87;;
3757;SDS011;1894;51.038;13.692;2022-07-03T09:04:19;3.17;;;1.53;;
3757;SDS011;1894;51.038;13.692;2022-07-03T09:06:47;6.33;;;1.30;;
3757;SDS011;1894;51.038;13.692;2022-07-03T09:09:21;5.57;;;1.43;;
3757;SDS011;1894;51.038;13.692;2022-07-03T09:11:48;2.43;;;2.17;;
3757;SDS011;1894;51.038;13.692;2022-07-03T09:14:17;1.20;;;1.10;;
3757;SDS011;1894;51.038;13.692;2022-07-03T09:16:44;1.57;;;1.30;;
3757;SDS011;1894;51.038;13.692;2022-07-03T09:19:12;1.50;;;1.40;;
3757;SDS011;1894;51.038;13.692;2022-07-03T09:21:40;1.50;;;1.30;;
3757;SDS011;1894;51.038;13.692;2022-07-03T09:24:09;2.13;;;1.23;;
3757;SDS011;1894;51.038;13.692;2022-07-03T09:26:50;2.33;;;1.33;;
3757;SDS011;1894;51.038;13.692;2022-07-03T09:29:20;2.00;;;1.77;;
3757;SDS011;1894;51.038;13.692;2022-07-03T09:31:53;1.87;;;1.40;;
3757;SDS011;1894;51.038;13.692;2022-07-03T09:34:22;3.20;;;1.23;;
3757;SDS011;1894;51.038;13.692;2022-07-03T09:36:50;3.00;;;1.30;;
3757;SDS011;1894;51.038;13.692;2022-07-03T09:39:28;1.27;;;1.20;;
3757;SDS011;1894;51.038;13.692;2022-07-03T09:42:06;1.70;;;1.60;;
3757;SDS011;1894;51.038;13.692;2022-07-03T09:44:42;2.37;;;2.17;;
3757;SDS011;1894;51.038;13.692;2022-07-03T09:47:14;4.40;;;2.50;;
3757;SDS011;1894;51.038;13.692;2022-07-03T09:49:45;1.60;;;1.50;;
3757;SDS011;1894;51.038;13.692;2022-07-03T09:57:37;5.77;;;4.90;;
3757;SDS011;1894;51.038;13.692;2022-07-03T10:00:21;2.00;;;1.80;;
3757;SDS011;1894;51.038;13.692;2022-07-03T10:03:02;2.00;;;1.83;;
3757;SDS011;1894;51.038;13.692;2022-07-03T10:05:42;2.70;;;2.40;;
3757;SDS011;1894;51.038;13.692;2022-07-03T10:08:13;1.63;;;1.43;;
3757;SDS011;1894;51.038;13.692;2022-07-03T10:10:46;1.63;;;1.47;;
3757;SDS011;1894;51.038;13.692;2022-07-03T10:13:14;2.60;;;2.40;;
3757;SDS011;1894;51.038;13.692;2022-07-03T10:15:42;2.20;;;1.50;;
3757;SDS011;1894;51.038;13.692;2022-07-03T10:18:10;4.17;;;3.40;;
3757;SDS011;1894;51.038;13.692;2022-07-03T10:20:40;1.97;;;1.87;;
3757;SDS011;1894;51.038;13.692;2022-07-03T10:23:07;1.50;;;1.40;;
3757;SDS011;1894;51.038;13.692;2022-07-03T10:25:35;2.13;;;1.83;;
3757;SDS011;1894;51.038;13.692;2022-07-03T10:28:08;2.90;;;2.60;;
3757;SDS011;1894;51.038;13.692;2022-07-03T10:30:38;1.70;;;1.60;;
3757;SDS011;1894;51.038;13.692;2022-07-03T10:33:09;1.90;;;1.70;;
3757;SDS011;1894;51.038;13.692;2022-07-03T10:35:37;3.93;;;1.67;;
3757;SDS011;1894;51.038;13.692;2022-07-03T10:38:08;2.03;;;1.87;;
3757;SDS011;1894;51.038;13.692;2022-07-03T10:44:00;1.73;;;1.60;;
3757;SDS011;1894;51.038;13.692;2022-07-03T10:46:46;1.73;;;1.63;;
3757;SDS011;1894;51.038;13.692;2022-07-03T10:49:16;1.43;;;1.33;;
3757;SDS011;1894;51.038;13.692;2022-07-03T11:02:50;1.37;;;1.20;;
3757;SDS011;1894;51.038;13.692;2022-07-03T11:05:08;2.17;;;1.80;;
3757;SDS011;1894;51.038;13.692;2022-07-03T11:25:57;1.83;;;1.73;;
3757;SDS011;1894;51.038;13.692;2022-07-03T11:33:43;2.27;;;1.80;;
3757;SDS011;1894;51.038;13.692;2022-07-03T11:38:46;3.07;;;1.70;;
3757;SDS011;1894;51.038;13.692;2022-07-03T11:44:05;1.30;;;1.20;;
3757;SDS011;1894;51.038;13.692;2022-07-03T11:46:37;4.80;;;2.40;;
3757;SDS011;1894;51.038;13.692;2022-07-03T11:49:05;1.53;;;1.10;;
3757;SDS011;1894;51.038;13.692;2022-07-03T11:51:33;2.40;;;1.33;;
3757;SDS011;1894;51.038;13.692;2022-07-03T11:54:01;1.33;;;1.23;;
3757;SDS011;1894;51.038;13.692;2022-07-03T11:56:29;1.77;;;1.23;;
3757;SDS011;1894;51.038;13.692;2022-07-03T11:58:58;1.23;;;1.03;;
3757;SDS011;1894;51.038;13.692;2022-07-03T12:04:10;1.50;;;1.40;;
3757;SDS011;1894;51.038;13.692;2022-07-03T12:06:40;1.13;;;1.03;;
3757;SDS011;1894;51.038;13.692;2022-07-03T12:09:28;2.07;;;1.13;;
3757;SDS011;1894;51.038;13.692;2022-07-03T12:12:07;2.17;;;0.97;;
3757;SDS011;1894;51.038;13.692;2022-07-03T12:17:12;0.90;;;0.90;;
3757;SDS011;1894;51.038;13.692;2022-07-03T12:19:50;0.90;;;0.80;;
3757;SDS011;1894;51.038;13.692;2022-07-03T12:22:40;1.40;;;1.30;;
3757;SDS011;1894;51.038;13.692;2022-07-03T12:25:08;1.50;;;1.40;;
3757;SDS011;1894;51.038;13.692;2022-07-03T12:27:44;1.20;;;0.97;;
3757;SDS011;1894;51.038;13.692;2022-07-03T12:30:12;4.93;;;1.07;;
3757;SDS011;1894;51.038;13.692;2022-07-03T12:32:53;1.73;;;1.10;;
3757;SDS011;1894;51.038;13.692;2022-07-03T12:35:21;1.17;;;0.87;;
3757;SDS011;1894;51.038;13.692;2022-07-03T12:37:52;1.20;;;0.90;;
3757;SDS011;1894;51.038;13.692;2022-07-03T12:40:19;0.70;;;0.70;;
3757;SDS011;1894;51.038;13.692;2022-07-03T12:42:47;1.83;;;1.00;;
3757;SDS011;1894;51.038;13.692;2022-07-03T12:45:19;0.73;;;0.73;;
3757;SDS011;1894;51.038;13.692;2022-07-03T12:48:00;1.27;;;1.17;;
3757;SDS011;1894;51.038;13.692;2022-07-03T12:50:51;1.40;;;1.00;;
3757;SDS011;1894;51.038;13.692;2022-07-03T12:53:25;0.93;;;0.83;;
3757;SDS011;1894;51.038;13.692;2022-07-03T12:56:00;1.00;;;0.80;;
3757;SDS011;1894;51.038;13.692;2022-07-03T12:58:28;0.90;;;0.80;;
3757;SDS011;1894;51.038;13.692;2022-07-03T13:03:55;1.93;;;0.83;;
3757;SDS011;1894;51.038;13.692;2022-07-03T13:06:22;1.83;;;0.90;;
3757;SDS011;1894;51.038;13.692;2022-07-03T13:08:51;0.90;;;0.90;;
3757;SDS011;1894;51.038;13.692;2022-07-03T13:19:17;1.10;;;0.90;;
3757;SDS011;1894;51.038;13.692;2022-07-03T13:21:45;1.27;;;1.10;;
3757;SDS011;1894;51.038;13.692;2022-07-03T13:24:14;0.77;;;0.77;;
3757;SDS011;1894;51.038;13.692;2022-07-03T13:26:42;3.40;;;0.70;;
3757;SDS011;1894;51.038;13.692;2022-07-03T13:29:16;1.00;;;0.90;;
3757;SDS011;1894;51.038;13.692;2022-07-03T13:31:44;2.77;;;0.70;;
3757;SDS011;1894;51.038;13.692;2022-07-03T13:34:11;1.43;;;0.70;;
3757;SDS011;1894;51.038;13.692;2022-07-03T13:36:38;0.70;;;0.70;;
3757;SDS011;1894;51.038;13.692;2022-07-03T13:39:05;2.47;;;1.03;;
3757;SDS011;1894;51.038;13.692;2022-07-03T13:41:35;1.10;;;0.80;;
3757;SDS011;1894;51.038;13.692;2022-07-03T13:44:03;0.80;;;0.80;;
3757;SDS011;1894;51.038;13.692;2022-07-03T13:46:30;0.73;;;0.73;;
3757;SDS011;1894;51.038;13.692;2022-07-03T13:48:57;0.70;;;0.70;;
3757;SDS011;1894;51.038;13.692;2022-07-03T13:51:24;1.90;;;0.50;;
3757;SDS011;1894;51.038;13.692;2022-07-03T13:53:51;0.70;;;0.70;;
3757;SDS011;1894;51.038;13.692;2022-07-03T13:56:19;0.60;;;0.60;;
3757;SDS011;1894;51.038;13.692;2022-07-03T13:58:45;0.80;;;0.80;;
3757;SDS011;1894;51.038;13.692;2022-07-03T14:01:18;0.73;;;0.60;;
3757;SDS011;1894;51.038;13.692;2022-07-03T14:03:47;1.70;;;0.60;;
3757;SDS011;1894;51.038;13.692;2022-07-03T14:06:15;0.70;;;0.70;;
3757;SDS011;1894;51.038;13.692;2022-07-03T14:08:42;1.10;;;1.00;;
3757;SDS011;1894;51.038;13.692;2022-07-03T14:11:09;1.07;;;0.60;;
3757;SDS011;1894;51.038;13.692;2022-07-03T14:13:36;0.80;;;0.60;;
3757;SDS011;1894;51.038;13.692;2022-07-03T14:16:03;0.60;;;0.60;;
3757;SDS011;1894;51.038;13.692;2022-07-03T14:18:31;0.60;;;0.60;;
3757;SDS011;1894;51.038;13.692;2022-07-03T14:20:58;0.87;;;0.70;;
3757;SDS011;1894;51.038;13.692;2022-07-03T14:23:25;0.57;;;0.57;;
3757;SDS011;1894;51.038;13.692;2022-07-03T14:25:52;0.80;;;0.80;;
3757;SDS011;1894;51.038;13.692;2022-07-03T14:28:19;1.30;;;0.70;;
3757;SDS011;1894;51.038;13.692;2022-07-03T14:31:04;0.50;;;0.50;;
3757;SDS011;1894;51.038;13.692;2022-07-03T14:33:50;1.90;;;0.80;;
3757;SDS011;1894;51.038;13.692;2022-07-03T14:36:18;0.63;;;0.60;;
3757;SDS011;1894;51.038;13.692;2022-07-03T14:39:05;2.17;;;0.60;;
3757;SDS011;1894;51.038;13.692;2022-07-03T14:41:32;0.50;;;0.50;;
3757;SDS011;1894;51.038;13.692;2022-07-03T14:43:59;0.40;;;0.40;;
3757;SDS011;1894;51.038;13.692;2022-07-03T14:46:26;0.93;;;0.60;;
3757;SDS011;1894;51.038;13.692;2022-07-03T14:48:53;1.90;;;0.50;;
3757;SDS011;1894;51.038;13.692;2022-07-03T14:51:20;0.53;;;0.53;;
3757;SDS011;1894;51.038;13.692;2022-07-03T14:53:47;0.80;;;0.80;;
3757;SDS011;1894;51.038;13.692;2022-07-03T14:56:15;0.50;;;0.50;;
3757;SDS011;1894;51.038;13.692;2022-07-03T14:58:46;1.07;;;0.40;;
3757;SDS011;1894;51.038;13.692;2022-07-03T15:01:18;1.57;;;0.53;;
3757;SDS011;1894;51.038;13.692;2022-07-03T15:03:59;1.47;;;0.50;;
3757;SDS011;1894;51.038;13.692;2022-07-03T15:06:28;2.30;;;0.50;;
3757;SDS011;1894;51.038;13.692;2022-07-03T15:09:00;0.43;;;0.43;;
3757;SDS011;1894;51.038;13.692;2022-07-03T15:11:34;0.60;;;0.50;;
3757;SDS011;1894;51.038;13.692;2022-07-03T15:14:23;3.80;;;1.27;;
3757;SDS011;1894;51.038;13.692;2022-07-03T15:16:52;0.50;;;0.50;;
3757;SDS011;1894;51.038;13.692;2022-07-03T15:19:20;1.53;;;0.70;;
3757;SDS011;1894;51.038;13.692;2022-07-03T15:21:49;0.87;;;0.87;;
3757;SDS011;1894;51.038;13.692;2022-07-03T15:24:18;0.70;;;0.70;;
3757;SDS011;1894;51.038;13.692;2022-07-03T15:26:52;1.23;;;0.83;;
3757;SDS011;1894;51.038;13.692;2022-07-03T15:29:20;0.93;;;0.60;;
3757;SDS011;1894;51.038;13.692;2022-07-03T15:31:47;0.90;;;0.63;;
3757;SDS011;1894;51.038;13.692;2022-07-03T15:34:15;2.83;;;0.80;;
3757;SDS011;1894;51.038;13.692;2022-07-03T15:39:09;0.77;;;0.77;;
3757;SDS011;1894;51.038;13.692;2022-07-03T15:41:53;0.70;;;0.70;;
3757;SDS011;1894;51.038;13.692;2022-07-03T15:45:16;0.80;;;0.70;;
3757;SDS011;1894;51.038;13.692;2022-07-03T15:53:29;0.60;;;0.60;;
3757;SDS011;1894;51.038;13.692;2022-07-03T15:56:02;2.60;;;0.87;;
3757;SDS011;1894;51.038;13.692;2022-07-03T15:58:35;1.00;;;0.70;;
3757;SDS011;1894;51.038;13.692;2022-07-03T16:01:05;4.43;;;0.70;;
3757;SDS011;1894;51.038;13.692;2022-07-03T16:04:01;2.50;;;0.80;;
3757;SDS011;1894;51.038;13.692;2022-07-03T16:06:34;1.17;;;1.07;;
3757;SDS011;1894;51.038;13.692;2022-07-03T16:09:07;2.20;;;1.13;;
3757;SDS011;1894;51.038;13.692;2022-07-03T16:11:35;0.90;;;0.90;;
3757;SDS011;1894;51.038;13.692;2022-07-03T16:14:03;0.83;;;0.83;;
3757;SDS011;1894;51.038;13.692;2022-07-03T16:16:32;3.10;;;0.80;;
3757;SDS011;1894;51.038;13.692;2022-07-03T16:19:03;1.13;;;0.70;;
3757;SDS011;1894;51.038;13.692;2022-07-03T16:21:31;2.20;;;0.90;;
3757;SDS011;1894;51.038;13.692;2022-07-03T16:23:59;2.20;;;0.80;;
3757;SDS011;1894;51.038;13.692;2022-07-03T16:26:26;2.40;;;1.00;;
3757;SDS011;1894;51.038;13.692;2022-07-03T16:28:56;2.30;;;1.20;;
3757;SDS011;1894;51.038;13.692;2022-07-03T16:31:27;1.30;;;0.80;;
3757;SDS011;1894;51.038;13.692;2022-07-03T16:34:09;0.93;;;0.93;;
3757;SDS011;1894;51.038;13.692;2022-07-03T16:36:52;1.20;;;0.80;;
3757;SDS011;1894;51.038;13.692;2022-07-03T16:39:35;2.10;;;0.93;;
3757;SDS011;1894;51.038;13.692;2022-07-03T16:42:04;0.90;;;0.90;;
3757;SDS011;1894;51.038;13.692;2022-07-03T16:44:36;1.77;;;0.80;;
3757;SDS011;1894;51.038;13.692;2022-07-03T16:47:03;2.43;;;1.10;;
3757;SDS011;1894;51.038;13.692;2022-07-03T16:49:31;1.30;;;1.00;;
3757;SDS011;1894;51.038;13.692;2022-07-03T16:52:09;1.23;;;0.90;;
3757;SDS011;1894;51.038;13.692;2022-07-03T16:54:38;2.50;;;0.90;;
3757;SDS011;1894;51.038;13.692;2022-07-03T16:57:07;0.80;;;0.80;;
3757;SDS011;1894;51.038;13.692;2022-07-03T16:59:34;2.50;;;0.90;;
3757;SDS011;1894;51.038;13.692;2022-07-03T17:02:03;2.10;;;1.00;;